createdAt,value
2022-09-25T00:01:01.202Z,2.53
2022-09-25T00:03:29.981Z,2.90
2022-09-25T00:08:43.455Z,2.80
2022-09-25T00:11:13.071Z,2.67
2022-09-25T00:13:40.974Z,2.50
2022-09-25T00:21:35.065Z,3.17
2022-09-25T00:24:04.935Z,3.20
2022-09-25T00:26:34.832Z,2.83
2022-09-25T00:31:33.947Z,2.60
2022-09-25T00:34:02.360Z,2.67
2022-09-25T00:36:29.974Z,2.83
2022-09-25T00:38:56.827Z,2.63
2022-09-25T00:41:25.920Z,2.70
2022-09-25T00:43:56.172Z,3.10
2022-09-25T00:51:52.678Z,2.57
2022-09-25T00:54:26.304Z,2.67
2022-09-25T01:05:09.390Z,2.30
2022-09-25T01:12:48.376Z,3.07
2022-09-25T01:17:59.483Z,3.00
2022-09-25T01:20:28.749Z,3.00
2022-09-25T01:31:37.979Z,2.63
2022-09-25T01:34:29.752Z,2.30
2022-09-25T01:39:47.040Z,3.27
2022-09-25T01:52:58.834Z,2.87
2022-09-25T01:55:38.371Z,2.90
2022-09-25T01:58:16.459Z,2.40
2022-09-25T02:03:47.283Z,2.83
2022-09-25T02:06:19.679Z,2.70
2022-09-25T02:09:07.193Z,2.40
2022-09-25T02:17:46.496Z,2.70
2022-09-25T02:23:18.697Z,2.13
2022-09-25T02:28:26.831Z,2.37
2022-09-25T02:30:56.246Z,2.50
2022-09-25T02:38:27.643Z,2.60
2022-09-25T02:41:07.209Z,2.63
2022-09-25T03:03:19.257Z,2.50
2022-09-25T03:05:47.735Z,2.10
2022-09-25T03:21:46.548Z,2.47
2022-09-25T03:26:46.143Z,2.43
2022-09-25T03:31:46.412Z,2.60
2022-09-25T03:36:47.409Z,2.30
2022-09-25T03:39:17.548Z,2.63
2022-09-25T03:44:16.265Z,2.07
2022-09-25T03:46:42.937Z,2.23
2022-09-25T03:49:10.642Z,2.07
2022-09-25T03:51:38.897Z,2.23
2022-09-25T03:54:05.728Z,2.10
2022-09-25T03:56:32.664Z,2.70
2022-09-25T03:58:59.370Z,2.43
2022-09-25T04:01:27.441Z,2.63
2022-09-25T04:03:54.629Z,2.30
2022-09-25T04:06:25.773Z,3.03
2022-09-25T04:08:53.221Z,2.73
2022-09-25T04:11:21.836Z,2.40
2022-09-25T04:13:48.572Z,2.90
2022-09-25T04:16:16.686Z,2.27
2022-09-25T04:18:44.003Z,2.07
2022-09-25T04:21:13.367Z,2.70
2022-09-25T04:23:40.543Z,2.70
2022-09-25T04:26:07.542Z,2.27
2022-09-25T04:28:35.561Z,2.70
2022-09-25T04:31:03.632Z,2.37
2022-09-25T04:33:48.606Z,2.53
2022-09-25T04:36:16.490Z,2.30
2022-09-25T04:38:43.892Z,1.97
2022-09-25T04:41:11.120Z,2.30
2022-09-25T04:43:37.844Z,2.33
2022-09-25T04:46:07.215Z,2.30
2022-09-25T04:48:35.503Z,2.30
2022-09-25T04:51:02.438Z,2.60
2022-09-25T04:53:30.905Z,2.23
2022-09-25T04:56:12.297Z,2.73
2022-09-25T04:58:45.357Z,2.47
2022-09-25T05:01:12.002Z,2.60
2022-09-25T05:03:38.761Z,2.30
2022-09-25T05:33:18.115Z,2.40
2022-09-25T05:50:37.419Z,2.10
2022-09-25T05:55:37.060Z,1.93
2022-09-25T06:15:37.584Z,2.20
2022-09-25T06:20:36.678Z,2.20
2022-09-25T06:25:36.361Z,2.30
2022-09-25T06:30:36.715Z,2.00
2022-09-25T06:33:07.383Z,1.90
2022-09-25T06:35:36.988Z,1.77
2022-09-25T06:58:17.397Z,2.20
2022-09-25T07:46:07.093Z,2.07
2022-09-25T07:48:33.864Z,1.90
2022-09-25T07:51:01.763Z,1.80
2022-09-25T07:53:28.698Z,1.90
2022-09-25T07:56:03.655Z,1.83
2022-09-25T08:01:07.204Z,1.47
2022-09-25T08:06:11.716Z,2.10
2022-09-25T08:08:40.267Z,1.90
2022-09-25T08:11:11.293Z,1.97
2022-09-25T08:13:38.876Z,1.70
2022-09-25T08:18:42.100Z,2.43
2022-09-25T08:21:10.187Z,2.47
2022-09-25T08:23:37.357Z,2.00
2022-09-25T08:28:31.216Z,1.90
2022-09-25T08:33:29.103Z,1.53
2022-09-25T08:36:14.395Z,1.97
2022-09-25T08:38:41.075Z,1.70
2022-09-25T08:41:16.707Z,2.03
2022-09-25T08:47:19.458Z,1.90
2022-09-25T08:50:14.164Z,1.90
2022-09-25T08:52:44.279Z,1.63
2022-09-25T08:55:47.113Z,1.97
2022-09-25T08:58:24.589Z,2.17
2022-09-25T09:00:58.805Z,2.03
2022-09-25T09:03:29.968Z,1.97
2022-09-25T09:08:39.591Z,2.20
2022-09-25T09:11:22.032Z,1.80
2022-09-25T09:19:16.009Z,2.13
2022-09-25T09:24:45.791Z,1.80
2022-09-25T09:35:45.017Z,1.67
2022-09-25T09:38:50.378Z,1.93
2022-09-25T10:00:46.211Z,1.70
2022-09-25T10:03:20.805Z,1.80
2022-09-25T10:05:49.769Z,2.20
2022-09-25T10:08:17.190Z,1.70
2022-09-25T10:10:47.394Z,2.00
2022-09-25T10:13:30.132Z,2.20
2022-09-25T10:16:01.765Z,1.93
2022-09-25T10:18:50.619Z,1.70
2022-09-25T10:21:21.101Z,1.77
2022-09-25T10:23:53.285Z,1.90
2022-09-25T10:26:30.016Z,1.83
2022-09-25T10:28:58.753Z,1.60
2022-09-25T10:31:28.909Z,1.97
2022-09-25T10:34:08.782Z,2.13
2022-09-25T10:36:37.706Z,1.60
2022-09-25T10:39:31.384Z,1.67
2022-09-25T10:41:52.456Z,1.83
2022-09-25T10:44:23.068Z,1.87
2022-09-25T10:47:08.263Z,1.80
2022-09-25T10:50:05.368Z,1.60
2022-09-25T10:52:49.706Z,1.97
2022-09-25T10:55:29.388Z,1.87
2022-09-25T11:00:47.469Z,1.80
2022-09-25T11:03:24.896Z,1.50
2022-09-25T11:08:54.665Z,1.93
2022-09-25T11:11:27.324Z,1.53
2022-09-25T11:13:58.071Z,1.50
2022-09-25T11:16:48.664Z,1.70
2022-09-25T11:19:20.995Z,1.90
2022-09-25T11:21:50.298Z,1.60
2022-09-25T11:24:41.359Z,1.83
2022-09-25T11:27:23.447Z,1.87
2022-09-25T11:30:03.884Z,1.50
2022-09-25T11:32:43.365Z,1.80
2022-09-25T11:35:34.653Z,1.60
2022-09-25T11:44:27.703Z,1.47
2022-09-25T11:47:12.728Z,1.70
2022-09-25T11:49:41.546Z,1.70
2022-09-25T11:52:23.468Z,1.80
2022-09-25T11:55:27.211Z,1.60
2022-09-25T11:58:07.780Z,1.50
2022-09-25T12:00:49.554Z,1.60
2022-09-25T12:06:38.158Z,1.80
2022-09-25T12:09:29.569Z,1.67
2022-09-25T12:15:01.764Z,1.93
2022-09-25T12:20:38.854Z,1.30
2022-09-25T12:23:20.855Z,1.67
2022-09-25T12:28:29.361Z,1.60
2022-09-25T12:33:52.348Z,1.60
2022-09-25T12:36:41.266Z,1.80
2022-09-25T12:39:37.080Z,1.70
2022-09-25T12:42:07.780Z,1.80
2022-09-25T12:50:29.377Z,2.27
2022-09-25T12:53:02.561Z,1.60
2022-09-25T12:55:40.699Z,1.60
2022-09-25T12:58:29.999Z,2.00
2022-09-25T13:06:57.926Z,1.60
2022-09-25T13:12:17.012Z,1.60
2022-09-25T13:15:07.422Z,2.30
2022-09-25T13:20:28.437Z,1.77
2022-09-25T13:22:59.427Z,1.40
2022-09-25T13:25:27.035Z,2.00
2022-09-25T13:30:28.741Z,1.70
2022-09-25T13:40:50.529Z,1.50
2022-09-25T13:51:20.306Z,1.27
2022-09-25T13:56:40.556Z,1.90
2022-09-25T14:04:38.218Z,1.60
2022-09-25T14:15:08.051Z,2.23
2022-09-25T14:17:36.758Z,1.30
2022-09-25T14:20:18.865Z,1.70
2022-09-25T14:25:37.362Z,1.60
2022-09-25T14:31:21.252Z,1.50
2022-09-25T14:34:01.578Z,1.90
2022-09-25T14:37:00.242Z,1.60
2022-09-25T14:39:35.564Z,1.80
2022-09-25T14:42:06.682Z,1.97
2022-09-25T16:18:19.764Z,2.03
2022-09-25T16:23:31.252Z,1.50
2022-09-25T16:26:01.064Z,2.20
2022-09-25T16:28:31.148Z,1.80
2022-09-25T16:31:03.237Z,2.10
2022-09-25T16:33:39.986Z,1.83
2022-09-25T16:36:17.600Z,1.97
2022-09-25T16:39:09.514Z,1.93
2022-09-25T16:41:38.595Z,2.33
2022-09-25T16:44:15.811Z,1.87
2022-09-25T16:47:03.246Z,2.30
2022-09-25T16:49:32.828Z,2.13
2022-09-25T16:52:00.227Z,2.97
2022-09-25T16:54:31.530Z,2.30
2022-09-25T16:56:59.694Z,2.20
2022-09-25T16:59:28.368Z,2.33
2022-09-25T17:02:04.790Z,1.67
2022-09-25T17:04:33.170Z,1.97
2022-09-25T17:06:59.724Z,1.60
2022-09-25T17:09:28.649Z,2.00
2022-09-25T17:12:20.237Z,2.40
2022-09-25T17:14:47.765Z,2.33
2022-09-25T17:17:17.508Z,2.07
2022-09-25T17:19:44.120Z,2.30
2022-09-25T17:24:42.514Z,1.80
2022-09-25T17:27:16.469Z,2.40
2022-09-25T17:29:43.661Z,2.03
2022-09-25T17:32:14.055Z,2.20
2022-09-25T17:37:12.776Z,1.83
2022-09-25T17:39:39.316Z,1.83
2022-09-25T17:42:06.204Z,1.90
2022-09-25T17:44:32.933Z,2.10
2022-09-25T17:49:32.289Z,2.27
2022-09-25T17:51:58.838Z,2.13
2022-09-25T17:54:26.896Z,2.33
2022-09-25T17:56:53.411Z,1.80
2022-09-25T17:59:20.483Z,2.00
2022-09-25T18:01:47.093Z,1.73
2022-09-25T18:04:22.378Z,1.90
2022-09-25T18:06:49.572Z,2.37
2022-09-25T18:09:16.375Z,1.80
2022-09-25T18:11:44.043Z,1.70
2022-09-25T18:14:15.363Z,1.53
2022-09-25T18:16:44.020Z,1.73
2022-09-25T18:19:34.339Z,2.10
2022-09-25T18:22:21.246Z,1.70
2022-09-25T18:24:52.516Z,2.13
2022-09-25T18:27:19.347Z,2.10
2022-09-25T18:29:47.140Z,1.53
2022-09-25T18:32:14.617Z,2.10
2022-09-25T18:34:42.144Z,1.97
2022-09-25T18:37:09.303Z,1.77
2022-09-25T18:39:35.919Z,1.90
2022-09-25T18:42:02.543Z,1.77
2022-09-25T18:44:29.161Z,1.83
2022-09-25T18:46:55.937Z,1.70
2022-09-25T18:49:23.871Z,1.63
2022-09-25T18:54:23.247Z,1.90
2022-09-25T18:56:49.920Z,1.60
2022-09-25T18:59:16.444Z,1.70
2022-09-25T19:01:43.832Z,1.70
2022-09-25T19:04:15.537Z,1.70
2022-09-25T19:06:42.143Z,1.93
2022-09-25T19:09:12.600Z,1.80
2022-09-25T19:11:42.860Z,1.70
2022-09-25T19:14:09.521Z,1.73
2022-09-25T19:16:38.590Z,1.70
2022-09-25T19:19:05.563Z,2.07
2022-09-25T19:21:32.841Z,1.70
2022-09-25T19:23:59.481Z,1.93
2022-09-25T19:26:26.220Z,2.20
2022-09-25T19:28:54.064Z,1.80
2022-09-25T19:31:25.797Z,2.17
2022-09-25T19:33:53.857Z,1.90
2022-09-25T19:36:26.234Z,1.93
2022-09-25T19:38:54.331Z,2.60
2022-09-25T19:41:26.059Z,1.63
2022-09-25T19:43:53.927Z,1.67
2022-09-25T19:48:52.032Z,1.50
2022-09-25T19:53:53.511Z,2.07
2022-09-25T19:58:52.555Z,1.80
2022-09-25T20:01:27.247Z,1.93
2022-09-25T20:03:56.466Z,1.70
2022-09-25T20:06:24.467Z,1.47
2022-09-25T20:08:56.949Z,1.77
2022-09-25T20:11:24.947Z,1.97
2022-09-25T20:13:53.166Z,1.70
2022-09-25T20:16:24.095Z,2.20
2022-09-25T20:18:53.548Z,2.17
2022-09-25T20:21:23.076Z,1.80
2022-09-25T20:23:54.566Z,2.33
2022-09-25T20:26:23.040Z,2.40
2022-09-25T20:28:55.356Z,2.20
2022-09-25T20:31:22.285Z,1.70
2022-09-25T20:33:48.915Z,1.80
2022-09-25T20:36:16.138Z,1.80
2022-09-25T20:38:43.011Z,1.77
2022-09-25T20:41:11.799Z,1.53
2022-09-25T20:43:38.988Z,1.70
2022-09-25T20:46:13.541Z,2.20
2022-09-25T20:48:47.376Z,2.30
2022-09-25T20:51:28.894Z,2.37
2022-09-25T20:53:58.352Z,2.83
2022-09-25T20:56:25.936Z,3.10
2022-09-25T20:58:54.536Z,2.60
2022-09-25T21:01:23.799Z,2.83
2022-09-25T21:03:51.490Z,2.37
2022-09-25T21:08:57.587Z,3.03
2022-09-25T21:11:26.533Z,3.37
2022-09-25T21:13:57.863Z,2.33
2022-09-25T21:16:25.919Z,2.27
2022-09-25T21:18:55.974Z,2.97
2022-09-25T21:21:24.736Z,2.57
2022-09-25T21:23:56.415Z,2.50
2022-09-25T21:26:26.924Z,2.33
2022-09-25T21:28:56.237Z,2.20
2022-09-25T21:31:25.692Z,2.47
2022-09-25T21:33:54.258Z,3.03
2022-09-25T21:36:22.498Z,2.00
2022-09-25T21:41:26.104Z,2.30
2022-09-25T21:43:54.542Z,2.37
2022-09-25T21:46:21.490Z,2.33
2022-09-25T21:49:08.575Z,2.70
2022-09-25T21:51:38.574Z,2.33
2022-09-25T21:54:08.082Z,2.03
2022-09-25T21:56:34.690Z,2.23
2022-09-25T21:59:08.325Z,1.93
2022-09-25T22:01:42.674Z,2.13
2022-09-25T22:04:12.212Z,2.27
2022-09-25T22:06:41.848Z,1.87
2022-09-25T22:09:11.362Z,2.33
2022-09-25T22:16:43.656Z,2.13
2022-09-25T22:19:12.351Z,2.43
2022-09-25T22:24:11.676Z,2.60
2022-09-25T22:29:13.171Z,2.53
2022-09-25T22:31:43.456Z,2.37
2022-09-25T22:34:26.464Z,2.70
2022-09-25T22:36:58.989Z,3.13
2022-09-25T22:39:26.513Z,2.40
2022-09-25T22:41:54.375Z,2.43
2022-09-25T22:44:21.727Z,2.77
2022-09-25T22:46:48.485Z,2.70
2022-09-25T22:49:15.248Z,2.67
2022-09-25T22:51:41.816Z,2.13
2022-09-25T22:56:41.833Z,2.30
2022-09-25T22:59:12.242Z,2.33
2022-09-25T23:01:44.192Z,2.40
2022-09-25T23:04:16.692Z,2.20
2022-09-25T23:06:43.878Z,2.50
2022-09-25T23:09:25.726Z,2.40
2022-09-25T23:11:54.059Z,2.10
2022-09-25T23:14:28.194Z,2.33
2022-09-25T23:16:55.691Z,2.73
2022-09-25T23:19:22.799Z,2.27
2022-09-25T23:21:51.433Z,2.10
2022-09-25T23:26:46.430Z,2.40
2022-09-25T23:29:15.293Z,2.10
2022-09-25T23:36:45.631Z,2.27
2022-09-25T23:51:55.707Z,2.60
2022-09-25T23:59:25.566Z,2.20
